createdAt,value
2023-05-03T00:00:42.316Z,84.91
2023-05-03T00:05:44.089Z,84.27
2023-05-03T00:10:45.848Z,84.82
2023-05-03T00:15:47.707Z,84.77
2023-05-03T00:20:50.277Z,83.51
2023-05-03T00:25:56.289Z,83.03
2023-05-03T00:31:06.243Z,83.34
2023-05-03T00:36:13.344Z,82.54
2023-05-03T00:41:15.169Z,83.09
2023-05-03T00:46:17.992Z,83.07
2023-05-03T00:51:21.509Z,83.81
2023-05-03T00:56:23.774Z,84.05
2023-05-03T01:01:26.068Z,83.83
2023-05-03T01:06:41.429Z,84.28
2023-05-03T01:12:08.845Z,84.41
2023-05-03T01:17:14.497Z,84.43
2023-05-03T01:22:38.016Z,84.26
2023-05-03T01:27:41.415Z,84.05
2023-05-03T01:33:10.551Z,83.23
2023-05-03T01:38:13.906Z,81.54
2023-05-03T01:43:17.057Z,81.85
2023-05-03T01:48:19.496Z,82.11
2023-05-03T01:53:21.352Z,82.07
2023-05-03T01:58:23.077Z,82.20
2023-05-03T02:03:24.918Z,81.63
2023-05-03T02:08:26.717Z,82.56
2023-05-03T02:13:28.440Z,82.32
2023-05-03T02:18:31.653Z,81.89
2023-05-03T02:23:33.373Z,81.67
2023-05-03T02:28:35.255Z,81.61
2023-05-03T02:33:38.015Z,81.60
2023-05-03T02:38:39.871Z,82.02
2023-05-03T02:43:41.883Z,81.89
2023-05-03T02:48:43.592Z,82.67
2023-05-03T02:53:46.611Z,83.17
2023-05-03T02:58:48.619Z,82.79
2023-05-03T03:03:50.620Z,83.56
2023-05-03T03:08:52.957Z,83.63
2023-05-03T03:13:55.158Z,83.86
2023-05-03T03:19:00.300Z,84.23
2023-05-03T03:24:03.591Z,84.10
2023-05-03T03:29:05.360Z,84.06
2023-05-03T03:34:08.833Z,84.37
2023-05-03T03:39:10.848Z,84.42
2023-05-03T03:44:12.761Z,84.03
2023-05-03T03:49:15.460Z,83.60
2023-05-03T03:54:17.246Z,83.79
2023-05-03T03:59:23.304Z,83.26
2023-05-03T04:04:26.516Z,83.37
2023-05-03T04:09:30.494Z,83.83
2023-05-03T04:14:32.765Z,84.21
2023-05-03T04:19:35.293Z,84.26
2023-05-03T04:24:39.687Z,83.93
2023-05-03T04:29:43.157Z,84.06
2023-05-03T04:34:49.072Z,84.40
2023-05-03T04:39:53.751Z,84.20
2023-05-03T04:44:56.394Z,84.58
2023-05-03T04:49:58.886Z,85.07
2023-05-03T04:55:02.357Z,85.09
2023-05-03T05:00:07.582Z,85.41
2023-05-03T05:05:11.061Z,86.05
2023-05-03T05:10:13.060Z,86.56
2023-05-03T05:15:15.862Z,87.35
2023-05-03T05:20:19.240Z,87.81
2023-05-03T05:25:24.131Z,87.39
2023-05-03T05:30:26.313Z,87.15
2023-05-03T05:35:28.323Z,87.99
2023-05-03T05:40:30.132Z,88.34
2023-05-03T05:45:34.487Z,87.14
2023-05-03T05:50:37.471Z,87.80
2023-05-03T05:55:44.067Z,88.37
2023-05-03T06:00:48.947Z,88.95
2023-05-03T06:05:51.119Z,89.29
2023-05-03T06:10:53.444Z,90.46
2023-05-03T06:15:56.731Z,92.11
2023-05-03T06:20:59.555Z,92.20
2023-05-03T06:26:01.605Z,92.07
2023-05-03T06:31:04.079Z,92.54
2023-05-03T06:36:08.215Z,92.92
2023-05-03T06:41:11.900Z,92.91
2023-05-03T06:46:13.910Z,92.56
2023-05-03T06:51:15.824Z,92.15
2023-05-03T06:56:17.621Z,92.32
2023-05-03T07:01:20.716Z,91.24
2023-05-03T07:06:25.844Z,91.31
2023-05-03T07:11:27.680Z,91.79
2023-05-03T07:16:29.519Z,90.99
2023-05-03T07:21:31.662Z,89.98
2023-05-03T07:26:34.212Z,90.55
2023-05-03T07:31:36.531Z,89.40
2023-05-03T07:36:39.061Z,89.77
2023-05-03T07:41:40.736Z,89.45
2023-05-03T07:46:42.411Z,88.46
2023-05-03T07:51:44.581Z,88.03
2023-05-03T07:56:46.717Z,88.26
2023-05-03T08:01:48.380Z,86.71
2023-05-03T08:06:50.846Z,87.33
2023-05-03T08:11:52.731Z,86.76
2023-05-03T08:16:55.096Z,86.60
2023-05-03T08:21:56.865Z,86.10
2023-05-03T08:26:58.958Z,85.60
2023-05-03T08:32:02.342Z,85.02
2023-05-03T08:37:05.363Z,85.01
2023-05-03T08:42:08.156Z,83.20
2023-05-03T08:47:10.052Z,84.10
2023-05-03T08:52:14.124Z,83.54
2023-05-03T08:57:16.914Z,83.50
2023-05-03T09:02:18.888Z,82.41
2023-05-03T09:07:21.144Z,82.60
2023-05-03T09:12:37.027Z,80.54
2023-05-03T09:17:38.806Z,80.22
2023-05-03T09:22:51.260Z,81.49
2023-05-03T09:28:02.625Z,80.48
2023-05-03T09:33:05.028Z,79.29
2023-05-03T09:38:07.423Z,79.68
2023-05-03T09:43:14.373Z,76.97
2023-05-03T09:48:16.635Z,76.52
2023-05-03T09:53:21.413Z,74.85
2023-05-03T09:58:25.544Z,73.76
2023-05-03T10:03:36.935Z,73.20
2023-05-03T10:08:45.288Z,73.87
2023-05-03T10:13:47.251Z,72.14
2023-05-03T10:19:17.593Z,74.57
2023-05-03T10:24:19.555Z,73.60
2023-05-03T10:29:34.400Z,74.09
2023-05-03T10:34:39.542Z,74.23
2023-05-03T10:39:47.100Z,71.84
2023-05-03T10:44:48.655Z,73.35
2023-05-03T10:50:15.968Z,73.84
2023-05-03T10:55:20.897Z,74.31
2023-05-03T11:00:41.275Z,72.62
2023-05-03T11:05:43.323Z,70.42
2023-05-03T11:10:57.974Z,69.99
2023-05-03T11:15:59.772Z,69.76
2023-05-03T11:21:01.687Z,69.01
2023-05-03T11:26:06.310Z,67.31
2023-05-03T11:31:09.643Z,67.74
2023-05-03T11:36:13.644Z,67.93
2023-05-03T11:41:18.720Z,64.55
2023-05-03T11:46:24.042Z,65.38
2023-05-03T11:51:27.699Z,64.60
2023-05-03T11:56:30.077Z,64.73
2023-05-03T12:01:31.919Z,62.81
2023-05-03T12:06:36.164Z,61.10
2023-05-03T12:11:44.002Z,62.94
2023-05-03T12:16:50.936Z,62.58
2023-05-03T12:22:13.258Z,62.64
2023-05-03T12:27:15.091Z,62.93
2023-05-03T12:32:17.183Z,61.43
2023-05-03T12:37:22.118Z,56.98
2023-05-03T12:42:25.625Z,56.49
2023-05-03T12:47:29.639Z,55.49
2023-05-03T12:52:59.021Z,56.49
2023-05-03T12:58:18.175Z,58.47
2023-05-03T13:03:20.623Z,58.07
2023-05-03T13:08:33.085Z,58.84
2023-05-03T13:13:35.948Z,57.70
2023-05-03T13:18:38.784Z,57.66
2023-05-03T13:23:40.572Z,58.81
2023-05-03T13:28:42.814Z,58.64
2023-05-03T13:33:44.722Z,58.61
2023-05-03T13:38:46.731Z,59.45
2023-05-03T13:43:48.406Z,59.80
2023-05-03T13:48:50.138Z,59.67
2023-05-03T13:53:51.938Z,59.49
2023-05-03T13:58:56.095Z,58.18
2023-05-03T14:03:57.846Z,58.49
2023-05-03T14:09:01.392Z,57.91
2023-05-03T14:14:03.852Z,57.15
2023-05-03T14:19:05.734Z,56.46
2023-05-03T14:24:08.133Z,54.75
2023-05-03T14:29:09.884Z,54.41
2023-05-03T14:34:11.979Z,54.00
2023-05-03T14:39:14.749Z,53.92
2023-05-03T14:44:17.627Z,54.25
2023-05-03T14:49:19.545Z,54.53
2023-05-03T14:54:23.150Z,54.47
2023-05-03T14:59:25.279Z,52.65
2023-05-03T15:04:27.424Z,53.21
2023-05-03T15:09:33.413Z,53.16
2023-05-03T15:14:35.079Z,52.54
2023-05-03T15:19:36.908Z,53.66
2023-05-03T15:24:41.363Z,54.25
2023-05-03T15:29:43.122Z,53.95
2023-05-03T15:34:44.909Z,52.25
2023-05-03T15:39:47.343Z,52.19
2023-05-03T15:44:49.712Z,51.79
2023-05-03T15:49:52.910Z,50.18
2023-05-03T15:54:56.165Z,50.98
2023-05-03T15:59:58.015Z,47.96
2023-05-03T16:04:59.858Z,49.53
2023-05-03T16:10:01.952Z,50.27
2023-05-03T16:15:05.482Z,50.14
2023-05-03T16:20:10.640Z,49.75
2023-05-03T16:25:12.658Z,48.62
2023-05-03T16:30:15.641Z,48.93
2023-05-03T16:35:17.255Z,49.66
2023-05-03T16:40:19.064Z,49.75
2023-05-03T16:45:21.324Z,50.27
2023-05-03T16:50:23.018Z,51.25
2023-05-03T16:55:25.015Z,52.18
2023-05-03T17:00:26.823Z,52.64
2023-05-03T17:05:33.034Z,52.38
2023-05-03T17:10:38.494Z,52.48
2023-05-03T17:15:40.230Z,53.05
2023-05-03T17:20:42.937Z,53.25
2023-05-03T17:25:44.819Z,54.23
2023-05-03T17:30:46.509Z,54.40
2023-05-03T17:35:48.258Z,53.95
2023-05-03T17:40:50.067Z,54.16
2023-05-03T17:45:51.775Z,54.53
2023-05-03T17:51:02.537Z,55.37
2023-05-03T17:56:04.647Z,56.60
2023-05-03T18:01:08.051Z,57.28
2023-05-03T18:06:11.941Z,57.01
2023-05-03T18:11:13.976Z,58.48
2023-05-03T18:16:15.712Z,60.12
2023-05-03T18:21:18.592Z,61.44
2023-05-03T18:26:20.305Z,62.55
2023-05-03T18:31:22.005Z,63.35
2023-05-03T18:36:24.011Z,63.35
2023-05-03T18:41:25.836Z,64.32
2023-05-03T18:46:27.582Z,64.30
2023-05-03T18:51:29.767Z,65.24
2023-05-03T18:56:32.078Z,65.97
2023-05-03T19:01:34.056Z,66.46
2023-05-03T19:06:36.108Z,66.49
2023-05-03T19:11:41.143Z,67.37
2023-05-03T19:16:43.064Z,67.38
2023-05-03T19:21:44.865Z,67.91
2023-05-03T19:26:46.555Z,68.47
2023-05-03T19:31:48.314Z,68.72
2023-05-03T19:36:50.305Z,69.21
2023-05-03T19:41:53.053Z,69.33
2023-05-03T19:46:54.743Z,69.34
2023-05-03T19:51:56.586Z,69.67
2023-05-03T19:57:02.346Z,70.20
2023-05-03T20:02:04.118Z,71.31
2023-05-03T20:07:05.912Z,71.23
2023-05-03T20:12:07.638Z,72.10
2023-05-03T20:17:09.320Z,71.58
2023-05-03T20:22:11.278Z,71.94
2023-05-03T20:27:12.995Z,72.60
2023-05-03T20:32:14.819Z,72.52
2023-05-03T20:37:16.701Z,73.12
2023-05-03T20:42:18.397Z,73.15
2023-05-03T20:47:20.804Z,73.23
2023-05-03T20:52:22.889Z,73.22
2023-05-03T20:57:24.658Z,72.99
2023-05-03T21:02:26.894Z,73.21
2023-05-03T21:07:28.910Z,73.51
2023-05-03T21:12:30.732Z,73.66
2023-05-03T21:17:32.485Z,73.87
2023-05-03T21:22:34.259Z,73.07
2023-05-03T21:27:35.995Z,73.89
2023-05-03T21:32:37.957Z,74.35
2023-05-03T21:37:39.915Z,74.26
2023-05-03T21:42:44.815Z,74.63
2023-05-03T21:47:46.648Z,74.70
2023-05-03T21:52:48.382Z,74.59
2023-05-03T21:57:50.073Z,75.01
2023-05-03T22:02:52.381Z,75.03
2023-05-03T22:07:54.145Z,74.96
2023-05-03T22:12:56.291Z,75.29
2023-05-03T22:17:58.231Z,75.13
2023-05-03T22:23:00.658Z,75.37
2023-05-03T22:28:02.385Z,75.18
2023-05-03T22:33:04.606Z,75.26
2023-05-03T22:38:06.541Z,75.24
2023-05-03T22:43:08.243Z,75.02
2023-05-03T22:48:10.068Z,76.14
2023-05-03T22:53:12.020Z,75.97
2023-05-03T22:58:14.081Z,76.30
2023-05-03T23:03:16.194Z,76.54
2023-05-03T23:08:18.325Z,76.38
2023-05-03T23:13:20.183Z,76.53
2023-05-03T23:18:22.226Z,76.35
2023-05-03T23:23:26.786Z,76.49
2023-05-03T23:28:28.676Z,76.78
2023-05-03T23:33:31.616Z,76.75
2023-05-03T23:38:33.806Z,77.02
2023-05-03T23:43:35.521Z,77.09
2023-05-03T23:48:37.309Z,77.71
2023-05-03T23:53:39.420Z,77.66
2023-05-03T23:58:41.086Z,78.21
